Time;durP1;ratioP1;P1;durP2;ratioP2;P2;SDS_P1;SDS_P2;PMS_P1;PMS_P2;Temp;Humidity;BMP_temperature;BMP_pressure;BME280_temperature;BME280_humidity;BME280_pressure;Samples;Min_cycle;Max_cycle;Signal;HPM_P1;HPM_P2
2024/01/03 00:00:22;;;;;;;11.70;3.35;;;;;;;9.56;92.48;98596.78;5018387;28;20114;-76
2024/01/03 00:02:48;;;;;;;13.02;3.60;;;;;;;9.50;93.61;98615.88;5014388;28;20140;-76
2024/01/03 00:05:14;;;;;;;12.55;3.78;;;;;;;9.42;94.24;98627.13;5006677;28;20036;-76
2024/01/03 00:07:41;;;;;;;13.13;4.15;;;;;;;9.35;94.18;98612.66;5024445;28;20042;-76
2024/01/03 00:10:34;;;;;;;9.77;3.40;;;;;;;9.42;95.48;98640.41;5024205;28;20219;-76
2024/01/03 00:13:00;;;;;;;11.57;3.63;;;;;;;9.19;96.60;98623.66;5025160;28;20419;-76
2024/01/03 00:15:34;;;;;;;12.05;3.80;;;;;;;9.25;97.83;98647.06;5024292;28;20835;-76
2024/01/03 00:18:03;;;;;;;17.70;3.90;;;;;;;9.11;99.71;98645.53;5022014;28;20943;-76
2024/01/03 00:20:28;;;;;;;15.82;4.47;;;;;;;9.03;100.00;98644.44;5018833;28;20407;-77
2024/01/03 00:22:54;;;;;;;18.60;5.25;;;;;;;9.00;100.00;98657.97;5024556;28;20033;-75
2024/01/03 00:25:27;;;;;;;18.88;4.88;;;;;;;9.02;100.00;98671.94;5023160;28;20030;-75
2024/01/03 00:27:54;;;;;;;17.15;5.20;;;;;;;9.01;100.00;98676.41;5024393;28;20222;-76
2024/01/03 00:30:19;;;;;;;12.38;4.28;;;;;;;8.97;100.00;98673.13;5022454;28;20040;-76
2024/01/03 00:32:44;;;;;;;16.52;4.32;;;;;;;8.93;100.00;98676.16;5023732;28;20029;-74
2024/01/03 00:35:10;;;;;;;17.58;4.80;;;;;;;8.94;100.00;98693.75;5023587;28;20795;-76
2024/01/03 00:37:36;;;;;;;12.68;3.92;;;;;;;8.89;100.00;98682.66;5022963;28;20491;-76
2024/01/03 00:40:05;;;;;;;17.25;4.68;;;;;;;8.88;100.00;98673.03;5021945;28;20029;-75
2024/01/03 00:42:30;;;;;;;13.38;4.32;;;;;;;8.89;100.00;98685.31;5022881;28;20037;-75
2024/01/03 00:44:55;;;;;;;16.08;4.10;;;;;;;8.82;100.00;98694.72;5024775;28;20488;-75
2024/01/03 00:47:22;;;;;;;14.45;4.10;;;;;;;8.85;100.00;98705.94;5023570;28;20041;-74
2024/01/03 00:49:49;;;;;;;13.10;4.20;;;;;;;8.83;100.00;98701.72;5023322;28;20064;-74
2024/01/03 00:52:15;;;;;;;18.58;4.88;;;;;;;8.88;100.00;98703.06;5021081;28;20068;-74
2024/01/03 00:54:41;;;;;;;16.02;4.63;;;;;;;8.86;100.00;98685.56;5022446;28;20098;-75
2024/01/03 00:57:07;;;;;;;20.83;5.28;;;;;;;8.82;100.00;98700.88;5023214;28;20430;-74
2024/01/03 00:59:34;;;;;;;20.23;5.50;;;;;;;8.83;100.00;98693.78;5020381;28;20041;-74
2024/01/03 01:02:03;;;;;;;25.40;4.88;;;;;;;8.85;100.00;98703.28;4999771;28;20454;-76
2024/01/03 01:04:32;;;;;;;16.55;4.90;;;;;;;8.88;100.00;98711.00;5018469;28;20167;-74
2024/01/03 01:06:58;;;;;;;21.95;5.28;;;;;;;8.86;100.00;98701.47;5021818;28;20416;-73
2024/01/03 01:09:23;;;;;;;23.17;5.68;;;;;;;8.75;100.00;98681.09;5022180;28;20030;-74
2024/01/03 01:11:49;;;;;;;21.10;5.20;;;;;;;8.88;100.00;98700.41;5022505;28;20029;-75
2024/01/03 01:14:14;;;;;;;22.40;5.68;;;;;;;8.86;100.00;98699.69;5023412;28;20121;-74
2024/01/03 01:16:39;;;;;;;23.08;6.10;;;;;;;8.86;100.00;98688.22;5023059;28;20112;-74
2024/01/03 01:19:06;;;;;;;22.05;5.55;;;;;;;8.87;100.00;98709.31;5023115;28;20125;-73
2024/01/03 01:21:32;;;;;;;17.95;5.00;;;;;;;8.87;100.00;98697.88;5023321;28;20033;-74
2024/01/03 01:23:57;;;;;;;17.02;5.07;;;;;;;8.85;100.00;98700.63;5020359;28;20506;-74
2024/01/03 01:26:22;;;;;;;21.90;5.47;;;;;;;8.83;100.00;98701.72;5022232;28;20452;-75
2024/01/03 01:28:48;;;;;;;20.08;5.63;;;;;;;8.81;100.00;98707.13;5021386;28;21077;-74
2024/01/03 01:31:13;;;;;;;22.13;5.50;;;;;;;8.84;100.00;98704.25;5022629;28;20116;-74
2024/01/03 01:33:38;;;;;;;22.13;5.78;;;;;;;8.85;100.00;98711.25;5022443;28;20268;-74
2024/01/03 01:36:04;;;;;;;25.75;5.55;;;;;;;8.87;100.00;98708.50;5023024;28;20080;-74
2024/01/03 01:38:29;;;;;;;21.92;4.90;;;;;;;8.92;100.00;98712.47;5021952;28;20055;-75
2024/01/03 01:40:55;;;;;;;18.05;4.97;;;;;;;8.94;100.00;98723.78;5022811;28;20056;-74
2024/01/03 01:43:20;;;;;;;20.65;5.60;;;;;;;8.93;100.00;98719.44;5023077;28;20264;-74
2024/01/03 01:45:47;;;;;;;21.00;5.28;;;;;;;8.91;100.00;98702.81;5023085;28;20540;-74
2024/01/03 01:48:17;;;;;;;20.20;5.35;;;;;;;9.00;100.00;98725.13;5023261;28;20492;-75
2024/01/03 01:50:44;;;;;;;20.02;5.07;;;;;;;9.07;100.00;98729.00;5023524;28;20496;-75
2024/01/03 01:53:10;;;;;;;21.33;5.55;;;;;;;9.16;100.00;98735.41;5021094;28;20041;-74
2024/01/03 01:55:38;;;;;;;24.58;6.15;;;;;;;9.11;100.00;98724.28;5022331;28;20376;-75
2024/01/03 01:58:06;;;;;;;21.05;5.30;;;;;;;9.11;100.00;98745.50;5020699;28;20040;-74
2024/01/03 02:00:31;;;;;;;17.85;5.47;;;;;;;8.98;100.00;98772.16;5019586;28;20152;-74
2024/01/03 02:02:57;;;;;;;19.60;5.32;;;;;;;8.92;100.00;98760.22;5022006;28;20161;-74
2024/01/03 02:05:25;;;;;;;19.75;5.30;;;;;;;8.80;100.00;98761.16;5020653;28;20052;-73
2024/01/03 02:07:51;;;;;;;18.25;5.20;;;;;;;8.70;100.00;98758.38;5022010;28;20037;-74
2024/01/03 02:10:16;;;;;;;17.95;5.22;;;;;;;8.65;100.00;98764.97;5020758;28;20041;-74
2024/01/03 02:12:42;;;;;;;18.67;5.35;;;;;;;8.54;100.00;98744.59;5022522;28;20064;-75
2024/01/03 02:15:07;;;;;;;15.00;4.40;;;;;;;8.56;100.00;98768.31;5020938;28;20052;-75
2024/01/03 02:17:34;;;;;;;18.38;4.65;;;;;;;8.51;100.00;98763.38;5022126;28;20033;-76
2024/01/03 02:20:01;;;;;;;23.48;5.18;;;;;;;8.54;100.00;98764.97;5021429;28;20038;-75
2024/01/03 02:22:28;;;;;;;19.50;5.13;;;;;;;8.57;100.00;98768.22;5021962;28;20041;-75
2024/01/03 02:24:53;;;;;;;18.42;4.82;;;;;;;8.56;100.00;98777.13;5020274;28;20512;-75
2024/01/03 02:27:19;;;;;;;18.30;4.88;;;;;;;8.57;100.00;98778.84;5021248;28;20056;-74
2024/01/03 02:29:44;;;;;;;18.15;4.55;;;;;;;8.52;100.00;98780.13;5012588;28;20029;-74
2024/01/03 02:32:09;;;;;;;16.83;4.38;;;;;;;8.52;100.00;98777.47;5022430;28;20492;-75
2024/01/03 02:34:35;;;;;;;15.18;4.50;;;;;;;8.52;100.00;98785.41;5021988;28;20205;-75
2024/01/03 02:37:01;;;;;;;16.55;4.43;;;;;;;8.41;100.00;98781.78;5022296;28;20116;-75
2024/01/03 02:39:27;;;;;;;18.23;4.97;;;;;;;8.38;100.00;98775.88;5018344;28;20033;-75
2024/01/03 02:41:52;;;;;;;16.00;4.25;;;;;;;8.31;100.00;98785.19;5022057;28;20073;-76
2024/01/03 02:44:19;;;;;;;18.13;4.28;;;;;;;8.36;100.00;98780.38;5022155;28;20042;-76
2024/01/03 02:46:45;;;;;;;17.08;4.72;;;;;;;8.29;100.00;98772.06;5021635;28;20228;-75
2024/01/03 02:49:10;;;;;;;15.43;4.50;;;;;;;8.24;100.00;98788.31;5022331;28;20167;-75
2024/01/03 02:51:35;;;;;;;18.98;4.43;;;;;;;8.23;100.00;98783.97;5022048;28;20693;-75
2024/01/03 02:54:01;;;;;;;16.80;4.72;;;;;;;8.25;100.00;98778.56;5020598;28;20033;-76
2024/01/03 02:56:29;;;;;;;18.00;4.70;;;;;;;8.27;100.00;98792.53;5022274;28;20037;-76
2024/01/03 02:58:54;;;;;;;15.45;4.40;;;;;;;8.21;100.00;98785.88;5022747;28;20045;-76
2024/01/03 03:01:19;;;;;;;21.60;4.93;;;;;;;8.12;100.00;98802.47;5022062;28;20037;-77
2024/01/03 03:03:45;;;;;;;18.10;5.40;;;;;;;8.06;100.00;98788.81;5021243;28;20145;-77
2024/01/03 03:06:10;;;;;;;20.10;4.68;;;;;;;7.98;100.00;98797.31;5003620;28;20034;-78
2024/01/03 03:08:36;;;;;;;24.90;5.30;;;;;;;7.92;100.00;98790.66;5022736;28;20060;-77
2024/01/03 03:11:02;;;;;;;22.50;5.28;;;;;;;7.83;100.00;98791.34;5022005;28;20296;-77
2024/01/03 03:13:28;;;;;;;20.67;5.60;;;;;;;7.87;100.00;98797.25;5023001;28;20060;-78
2024/01/03 03:15:53;;;;;;;22.73;5.43;;;;;;;7.82;100.00;98794.94;5024340;28;20512;-80
2024/01/03 03:18:19;;;;;;;18.30;4.57;;;;;;;7.88;100.00;98796.28;5027223;28;20037;-79
2024/01/03 03:20:44;;;;;;;23.02;5.45;;;;;;;7.78;100.00;98797.94;5027707;28;20092;-79
2024/01/03 03:23:10;;;;;;;24.50;6.22;;;;;;;7.80;100.00;98802.13;5021762;28;20036;-79
2024/01/03 03:25:35;;;;;;;22.33;5.50;;;;;;;7.79;100.00;98794.31;5012371;28;20124;-84
2024/01/03 03:28:02;;;;;;;24.08;5.43;;;;;;;7.78;100.00;98809.38;5029508;28;20594;-79
2024/01/03 03:30:27;;;;;;;24.58;5.90;;;;;;;7.74;100.00;98813.19;5027678;28;20060;-80
2024/01/03 03:32:53;;;;;;;20.20;5.22;;;;;;;7.71;100.00;98813.41;5023245;28;20036;-80
2024/01/03 03:35:18;;;;;;;28.23;6.43;;;;;;;7.64;100.00;98805.03;5030061;28;20288;-79
2024/01/03 03:37:43;;;;;;;22.80;5.53;;;;;;;7.64;100.00;98807.69;5029943;28;20048;-80
2024/01/03 03:40:09;;;;;;;19.83;5.03;;;;;;;7.62;100.00;98817.53;5027705;28;20453;-79
2024/01/03 03:42:34;;;;;;;25.08;5.75;;;;;;;7.57;100.00;98810.91;5025683;28;20171;-81
2024/01/03 03:45:00;;;;;;;23.27;5.50;;;;;;;7.39;100.00;98786.53;5029829;28;20514;-82
2024/01/03 03:47:25;;;;;;;27.00;5.90;;;;;;;7.49;100.00;98800.84;5027118;28;20172;-80
2024/01/03 03:49:51;;;;;;;23.92;5.65;;;;;;;7.61;100.00;98805.28;5012045;28;20229;-80
2024/01/03 03:52:16;;;;;;;20.85;5.45;;;;;;;7.54;100.00;98800.50;5028172;28;20041;-80
2024/01/03 03:54:41;;;;;;;22.60;5.00;;;;;;;7.63;100.00;98810.44;5027251;28;20041;-80
2024/01/03 03:57:07;;;;;;;26.25;5.65;;;;;;;7.61;100.00;98809.72;5025965;28;20557;-81
2024/01/03 03:59:32;;;;;;;19.95;4.63;;;;;;;7.50;100.00;98789.28;5026570;28;20033;-80
2024/01/03 04:01:58;;;;;;;22.55;5.40;;;;;;;7.63;100.00;98805.16;5025577;28;20558;-80
2024/01/03 04:04:23;;;;;;;19.33;4.45;;;;;;;7.58;100.00;98794.88;5012694;28;20046;-81
2024/01/03 04:06:48;;;;;;;15.27;4.00;;;;;;;7.62;100.00;98809.59;5026443;28;20030;-80
2024/01/03 04:09:14;;;;;;;18.70;4.80;;;;;;;7.63;100.00;98813.09;5026295;28;20530;-80
2024/01/03 04:11:40;;;;;;;15.50;4.20;;;;;;;7.64;100.00;98820.06;5025546;28;20553;-80
2024/01/03 04:14:07;;;;;;;19.40;4.35;;;;;;;7.63;100.00;98818.38;5028137;28;20051;-80
2024/01/03 04:16:33;;;;;;;21.00;5.05;;;;;;;7.58;100.00;98816.06;5011251;28;20194;-80
2024/01/03 04:18:58;;;;;;;15.18;3.70;;;;;;;7.64;100.00;98823.56;5026503;28;20044;-79
2024/01/03 04:21:23;;;;;;;15.95;4.15;;;;;;;7.64;100.00;98820.06;5026926;28;20037;-80
2024/01/03 04:23:49;;;;;;;14.43;4.13;;;;;;;7.58;100.00;98820.53;5025917;28;20037;-78
2024/01/03 04:26:14;;;;;;;11.35;3.50;;;;;;;7.58;100.00;98826.66;5026875;28;20040;-78
2024/01/03 04:28:39;;;;;;;14.05;3.63;;;;;;;7.62;100.00;98824.66;5025672;28;20095;-80
2024/01/03 04:31:06;;;;;;;10.98;3.30;;;;;;;7.55;100.00;98820.72;5025784;28;20033;-79
2024/01/03 04:33:31;;;;;;;15.00;3.20;;;;;;;7.47;100.00;98808.03;5010488;28;20509;-79
2024/01/03 04:35:57;;;;;;;10.32;3.17;;;;;;;7.48;100.00;98823.81;5028361;28;20048;-78
2024/01/03 04:38:22;;;;;;;11.52;3.10;;;;;;;7.47;100.00;98827.41;5015745;28;20040;-79
2024/01/03 04:40:48;;;;;;;8.10;2.95;;;;;;;7.43;100.00;98833.88;5035072;28;20037;-78
2024/01/03 04:43:13;;;;;;;8.88;2.80;;;;;;;7.30;100.00;98816.31;5011677;28;20055;-80
2024/01/03 04:45:39;;;;;;;9.75;2.42;;;;;;;7.33;100.00;98790.47;5028804;28;20029;-79
2024/01/03 04:48:04;;;;;;;11.80;2.88;;;;;;;7.27;100.00;98796.19;5032549;28;20060;-80
2024/01/03 04:50:30;;;;;;;11.88;2.95;;;;;;;7.33;100.00;98811.66;5030308;28;20037;-79
2024/01/03 04:52:59;;;;;;;7.50;2.45;;;;;;;7.41;100.00;98840.25;5013908;28;20514;-80
2024/01/03 04:55:25;;;;;;;11.80;2.85;;;;;;;7.30;100.00;98825.09;5033594;28;20124;-78
2024/01/03 04:57:52;;;;;;;6.38;2.03;;;;;;;7.44;100.00;98834.72;5008882;28;20067;-78
2024/01/03 05:00:17;;;;;;;8.43;2.53;;;;;;;7.45;100.00;98834.63;5023571;28;20247;-78
2024/01/03 05:02:43;;;;;;;7.40;2.20;;;;;;;7.31;100.00;98818.84;5026666;28;20025;-79
2024/01/03 05:05:08;;;;;;;7.35;2.30;;;;;;;7.29;100.00;98819.91;5032151;28;20049;-78
2024/01/03 05:07:34;;;;;;;8.55;2.40;;;;;;;7.28;100.00;98832.31;5009848;28;20518;-78
2024/01/03 05:10:00;;;;;;;7.90;2.17;;;;;;;7.25;100.00;98819.28;5028482;28;20491;-80
2024/01/03 05:12:27;;;;;;;9.60;3.30;;;;;;;7.36;100.00;98835.25;5010160;28;20092;-80
2024/01/03 05:14:52;;;;;;;6.60;2.50;;;;;;;7.36;100.00;98837.91;5005778;28;20045;-79
2024/01/03 05:17:18;;;;;;;8.52;2.50;;;;;;;7.21;100.00;98802.75;5027863;28;20030;-79
2024/01/03 05:19:44;;;;;;;6.93;2.35;;;;;;;7.37;100.00;98830.81;5009608;28;20137;-79
2024/01/03 05:22:09;;;;;;;9.00;2.50;;;;;;;7.39;100.00;98823.59;5030219;28;20064;-79
2024/01/03 05:24:35;;;;;;;7.32;2.78;;;;;;;7.43;100.00;98831.22;5024201;28;20033;-78
2024/01/03 05:27:00;;;;;;;9.43;2.65;;;;;;;7.43;100.00;98839.16;5023059;28;20088;-78
2024/01/03 05:29:27;;;;;;;10.63;2.92;;;;;;;7.45;100.00;98839.91;5023219;28;20339;-79
2024/01/03 05:31:52;;;;;;;9.77;3.22;;;;;;;7.40;100.00;98831.47;5009949;28;20053;-80
2024/01/03 05:34:18;;;;;;;10.75;3.20;;;;;;;7.41;100.00;98832.31;5024475;28;20380;-81
2024/01/03 05:36:43;;;;;;;13.20;3.85;;;;;;;7.31;100.00;98828.59;5026109;28;20048;-81
2024/01/03 05:39:13;;;;;;;10.70;3.72;;;;;;;7.27;100.00;98838.53;5023739;28;20398;-83
2024/01/03 05:41:38;;;;;;;12.07;3.20;;;;;;;7.33;100.00;98834.63;4998666;28;20038;-81
2024/01/03 05:44:03;;;;;;;12.35;3.35;;;;;;;7.28;100.00;98842.03;5021590;28;20041;-82
2024/01/03 05:46:29;;;;;;;10.82;3.42;;;;;;;7.19;100.00;98838.22;5024853;28;20095;-83
2024/01/03 05:48:54;;;;;;;11.27;3.38;;;;;;;7.15;100.00;98826.19;5026343;28;20064;-82
2024/01/03 05:51:20;;;;;;;10.43;3.10;;;;;;;7.22;100.00;98853.88;5026539;28;20076;-79
2024/01/03 05:53:47;;;;;;;11.00;3.03;;;;;;;7.21;100.00;98846.91;5025845;28;20029;-83
2024/01/03 05:56:16;;;;;;;12.95;3.33;;;;;;;7.15;100.00;98850.81;5025246;28;20041;-79
2024/01/03 05:58:42;;;;;;;15.18;3.55;;;;;;;7.17;100.00;98856.84;5016535;28;20067;-79
2024/01/03 06:01:08;;;;;;;11.20;3.53;;;;;;;7.14;100.00;98857.03;5040125;28;20041;-79
2024/01/03 06:03:34;;;;;;;10.23;3.25;;;;;;;6.97;100.00;98837.03;5046982;28;20053;-81
2024/01/03 06:05:59;;;;;;;11.48;4.38;;;;;;;7.10;100.00;98854.72;5037980;28;20045;-78
2024/01/03 06:08:25;;;;;;;13.10;4.00;;;;;;;7.09;100.00;98842.44;5028172;28;20029;-81
2024/01/03 06:10:50;;;;;;;11.93;3.80;;;;;;;7.09;100.00;98847.75;5033916;28;20148;-78
2024/01/03 06:13:15;;;;;;;9.82;3.35;;;;;;;7.07;100.00;98849.66;5027216;28;20316;-75
2024/01/03 06:15:41;;;;;;;13.25;3.30;;;;;;;7.05;100.00;98843.63;5026720;28;20524;-76
2024/01/03 06:18:07;;;;;;;10.60;3.20;;;;;;;7.01;100.00;98837.69;5028517;28;20083;-77
2024/01/03 06:20:32;;;;;;;10.82;3.75;;;;;;;7.04;100.00;98850.69;5027922;28;20048;-77
2024/01/03 06:22:57;;;;;;;11.75;3.78;;;;;;;7.05;100.00;98830.38;5027224;28;20545;-74
2024/01/03 06:25:23;;;;;;;10.30;3.42;;;;;;;7.03;100.00;98843.72;5024157;28;20045;-77
2024/01/03 06:27:48;;;;;;;13.80;3.95;;;;;;;6.90;100.00;98822.56;5023003;28;20043;-76
2024/01/03 06:30:14;;;;;;;15.02;3.83;;;;;;;6.91;100.00;98813.66;5023554;28;20060;-78
2024/01/03 06:32:39;;;;;;;11.40;3.88;;;;;;;6.92;100.00;98819.78;5025239;28;20523;-77
2024/01/03 06:35:05;;;;;;;8.85;3.17;;;;;;;6.99;100.00;98839.59;5023312;28;20391;-78
2024/01/03 06:37:31;;;;;;;14.40;3.85;;;;;;;7.02;100.00;98833.22;5027719;28;20077;-77
2024/01/03 06:39:59;;;;;;;12.13;4.00;;;;;;;6.95;100.00;98825.72;5025494;28;20068;-77
2024/01/03 06:42:25;;;;;;;11.45;4.28;;;;;;;6.99;100.00;98816.63;5021778;28;20029;-75
2024/01/03 06:44:50;;;;;;;11.05;3.03;;;;;;;7.02;100.00;98835.88;5022593;28;20037;-75
2024/01/03 06:47:15;;;;;;;10.63;3.33;;;;;;;6.92;100.00;98811.88;5021509;28;20041;-76
2024/01/03 06:49:41;;;;;;;11.10;3.55;;;;;;;6.95;100.00;98824.88;5021619;28;20234;-74
2024/01/03 06:52:06;;;;;;;11.55;3.47;;;;;;;6.92;100.00;98818.00;5027038;28;20077;-77
2024/01/03 06:54:31;;;;;;;12.10;3.53;;;;;;;6.91;100.00;98820.75;5036258;28;20037;-79
2024/01/03 06:56:58;;;;;;;14.43;3.70;;;;;;;6.91;100.00;98837.47;5025351;28;20077;-81
2024/01/03 06:59:23;;;;;;;10.07;3.10;;;;;;;6.87;100.00;98824.56;5022446;28;20037;-78
2024/01/03 07:01:49;;;;;;;6.65;3.17;;;;;;;6.85;100.00;98842.31;5025083;28;20492;-76
2024/01/03 07:04:15;;;;;;;7.25;2.85;;;;;;;6.77;100.00;98858.69;5005693;28;20385;-76
2024/01/03 07:06:41;;;;;;;6.03;2.72;;;;;;;6.56;100.00;98828.41;5021474;28;20045;-76
2024/01/03 07:09:06;;;;;;;7.20;2.70;;;;;;;6.65;100.00;98872.75;5025342;28;20056;-76
2024/01/03 07:11:33;;;;;;;6.15;2.47;;;;;;;6.59;100.00;98873.97;5023791;28;20045;-77
2024/01/03 07:13:59;;;;;;;4.68;2.30;;;;;;;6.54;100.00;98873.44;5006690;28;20040;-76
2024/01/03 07:16:25;;;;;;;5.28;2.58;;;;;;;6.55;100.00;98895.44;5008614;28;20108;-77
2024/01/03 07:18:50;;;;;;;7.00;2.70;;;;;;;6.42;100.00;98893.59;5008252;28;20037;-77
2024/01/03 07:21:16;;;;;;;4.45;2.40;;;;;;;6.45;100.00;98911.03;5007415;28;20648;-77
2024/01/03 07:23:41;;;;;;;4.15;2.72;;;;;;;6.39;100.00;98898.22;5025072;28;20037;-77
2024/01/03 07:26:07;;;;;;;7.30;2.67;;;;;;;6.42;100.00;98898.03;5024357;28;20060;-77
2024/01/03 07:28:32;;;;;;;6.05;2.75;;;;;;;6.38;100.00;98901.81;5004633;28;20049;-77
2024/01/03 07:30:58;;;;;;;5.80;3.40;;;;;;;6.35;100.00;98894.91;5022896;28;20431;-77
2024/01/03 07:33:23;;;;;;;5.45;2.88;;;;;;;6.34;100.00;98909.09;5025293;28;20051;-77
2024/01/03 07:35:49;;;;;;;6.18;3.35;;;;;;;6.29;100.00;98900.59;5024843;28;20025;-77
2024/01/03 07:38:14;;;;;;;3.92;3.10;;;;;;;6.32;100.00;98910.16;5025184;28;20033;-77
2024/01/03 07:40:39;;;;;;;4.63;3.30;;;;;;;6.33;100.00;98895.97;5006942;28;20109;-77
2024/01/03 07:43:05;;;;;;;5.35;3.00;;;;;;;6.31;100.00;98914.59;5024812;28;20038;-78
2024/01/03 07:45:30;;;;;;;6.35;2.97;;;;;;;6.28;100.00;98912.13;5024525;28;20404;-79
2024/01/03 07:47:56;;;;;;;3.92;2.80;;;;;;;6.31;100.00;98904.00;5026145;28;20416;-77
2024/01/03 07:50:21;;;;;;;4.43;2.55;;;;;;;6.35;100.00;98902.00;5024337;28;20048;-77
2024/01/03 07:52:47;;;;;;;7.57;2.88;;;;;;;6.34;100.00;98914.38;5027845;28;20525;-77
2024/01/03 07:55:12;;;;;;;5.88;2.88;;;;;;;6.40;100.00;98908.72;5020613;28;20146;-77
2024/01/03 07:57:37;;;;;;;7.90;3.40;;;;;;;6.38;100.00;98920.31;5024784;28;20029;-75
2024/01/03 08:00:04;;;;;;;7.95;3.90;;;;;;;6.38;100.00;98918.50;5022081;28;20037;-75
2024/01/03 08:02:32;;;;;;;8.68;3.90;;;;;;;6.30;100.00;98898.81;5024212;28;20073;-76
2024/01/03 08:04:57;;;;;;;7.68;4.00;;;;;;;6.35;100.00;98921.34;5022461;28;20439;-76
2024/01/03 08:07:23;;;;;;;10.55;3.50;;;;;;;6.37;100.00;98919.47;5025453;28;20103;-76
2024/01/03 08:09:50;;;;;;;10.57;3.60;;;;;;;6.36;100.00;98916.94;5024471;28;20037;-76
2024/01/03 08:12:16;;;;;;;11.50;3.47;;;;;;;6.32;100.00;98905.72;4994551;28;20658;-76
2024/01/03 08:14:41;;;;;;;11.25;3.53;;;;;;;6.36;100.00;98922.22;5019779;28;20562;-77
2024/01/03 08:17:07;;;;;;;9.73;2.97;;;;;;;6.34;100.00;98909.09;5025014;28;20076;-77
2024/01/03 08:19:32;;;;;;;10.73;2.92;;;;;;;6.25;100.00;98904.41;5024382;28;20033;-77
2024/01/03 08:21:59;;;;;;;12.35;3.67;;;;;;;6.34;100.00;98914.38;5021656;28;20073;-78
2024/01/03 08:24:26;;;;;;;10.82;2.95;;;;;;;6.28;100.00;98896.28;5024682;28;20034;-78
2024/01/03 08:26:52;;;;;;;17.38;3.85;;;;;;;6.44;100.00;98931.34;5023830;28;20068;-78
2024/01/03 08:29:17;;;;;;;17.83;4.15;;;;;;;6.31;100.00;98889.94;5022164;28;20369;-78
2024/01/03 08:31:43;;;;;;;20.08;3.60;;;;;;;6.36;100.00;98901.91;5025083;28;20033;-76
2024/01/03 08:34:08;;;;;;;16.63;3.80;;;;;;;6.41;100.00;98917.47;5026508;28;20391;-76
2024/01/03 08:36:41;;;;;;;17.15;3.67;;;;;;;6.54;100.00;98930.75;5023050;28;20410;-77
2024/01/03 08:39:07;;;;;;;16.35;3.28;;;;;;;6.43;100.00;98905.00;5022660;28;20391;-76
2024/01/03 08:41:33;;;;;;;17.48;3.95;;;;;;;6.57;100.00;98930.56;5022017;28;20557;-78
2024/01/03 08:43:58;;;;;;;16.60;3.90;;;;;;;6.57;100.00;98936.69;5023043;28;20045;-77
2024/01/03 08:46:30;;;;;;;19.95;4.18;;;;;;;6.60;100.00;98930.34;5022771;28;20117;-77
2024/01/03 08:48:56;;;;;;;23.65;4.88;;;;;;;6.56;100.00;98928.84;5024689;28;20140;-78
2024/01/03 08:51:22;;;;;;;23.98;4.85;;;;;;;6.66;100.00;98935.25;5016918;28;20120;-76
2024/01/03 08:53:48;;;;;;;27.75;4.88;;;;;;;6.61;100.00;98927.59;5015526;28;20837;-77
2024/01/03 08:56:17;;;;;;;18.58;4.97;;;;;;;6.71;100.00;98941.06;5023779;28;20033;-77
2024/01/03 08:58:45;;;;;;;23.08;5.40;;;;;;;6.66;100.00;98941.38;5023808;28;20428;-78
2024/01/03 09:01:17;;;;;;;26.38;5.88;;;;;;;6.68;100.00;98950.03;5023569;28;20384;-76
2024/01/03 09:03:44;;;;;;;36.50;6.30;;;;;;;6.81;100.00;98943.94;5017959;28;20061;-76
2024/01/03 09:06:09;;;;;;;30.20;5.40;;;;;;;6.86;100.00;98952.44;5022258;28;20064;-77
2024/01/03 09:08:34;;;;;;;23.65;5.78;;;;;;;6.96;100.00;98953.53;5022055;28;20068;-77
2024/01/03 09:11:00;;;;;;;23.60;6.28;;;;;;;7.08;100.00;98955.34;5021447;28;20049;-76
2024/01/03 09:13:25;;;;;;;25.00;6.10;;;;;;;7.16;100.00;98961.00;5021878;28;20073;-76
2024/01/03 09:15:51;;;;;;;24.67;6.07;;;;;;;7.14;100.00;98952.28;5023353;28;20041;-76
2024/01/03 09:18:16;;;;;;;29.08;6.75;;;;;;;7.21;100.00;98958.03;5023398;28;20064;-76
2024/01/03 09:20:42;;;;;;;33.25;6.22;;;;;;;7.14;100.00;98949.63;5003508;28;20029;-77
2024/01/03 09:23:07;;;;;;;27.40;5.75;;;;;;;7.17;100.00;98941.50;5023246;28;20138;-77
2024/01/03 09:25:32;;;;;;;25.25;5.90;;;;;;;7.31;100.00;98959.09;5021479;28;20116;-76
2024/01/03 09:27:58;;;;;;;27.00;5.70;;;;;;;7.27;100.00;98952.31;5022884;28;20435;-78
2024/01/03 09:30:24;;;;;;;23.05;5.65;;;;;;;7.22;100.00;98955.28;5020988;28;20032;-77
2024/01/03 09:32:50;;;;;;;27.42;5.85;;;;;;;7.19;100.00;98959.91;5021241;28;20042;-78
2024/01/03 09:35:15;;;;;;;24.58;5.22;;;;;;;7.20;100.00;98965.13;5017607;28;20040;-77
2024/01/03 09:37:41;;;;;;;25.98;5.43;;;;;;;7.26;100.00;98955.91;5022108;28;20117;-77
2024/01/03 09:40:09;;;;;;;20.48;5.18;;;;;;;7.27;100.00;98973.47;5018930;28;20114;-77
2024/01/03 09:42:35;;;;;;;26.15;5.88;;;;;;;7.31;100.00;98977.63;5022661;28;20167;-78
2024/01/03 09:45:02;;;;;;;27.65;5.78;;;;;;;7.27;100.00;98968.19;5022240;28;20037;-78
2024/01/03 09:47:27;;;;;;;24.55;5.45;;;;;;;7.46;100.00;98973.09;5021877;28;20200;-77
2024/01/03 09:49:53;;;;;;;26.42;5.40;;;;;;;7.41;100.00;98949.59;5021827;28;20037;-77
2024/01/03 09:52:21;;;;;;;28.38;5.75;;;;;;;7.58;100.00;98976.72;5023016;28;20045;-78
2024/01/03 09:54:46;;;;;;;24.98;5.32;;;;;;;7.60;100.00;98983.59;5009422;28;20146;-77
2024/01/03 09:57:12;;;;;;;28.15;5.88;;;;;;;7.65;100.00;98977.97;5021435;28;20754;-77
2024/01/03 09:59:37;;;;;;;25.73;5.88;;;;;;;7.65;100.00;98965.63;5019781;28;20048;-78
2024/01/03 10:02:05;;;;;;;26.42;6.32;;;;;;;7.81;100.00;98980.44;5022133;28;20522;-78
2024/01/03 10:04:31;;;;;;;30.52;5.53;;;;;;;7.93;100.00;98980.41;5026350;28;20041;-77
2024/01/03 10:06:59;;;;;;;18.58;5.32;;;;;;;8.07;100.00;98994.50;5023227;28;20827;-77
2024/01/03 10:09:41;;;;;;;22.15;5.70;;;;;;;8.18;100.00;98995.44;5021158;28;20033;-77
2024/01/03 10:12:17;;;;;;;22.73;5.38;;;;;;;8.25;100.00;98995.88;5018979;28;20041;-78
2024/01/03 10:14:43;;;;;;;24.92;5.93;;;;;;;8.36;100.00;98990.66;5022841;28;20041;-77
2024/01/03 10:17:09;;;;;;;24.75;6.15;;;;;;;8.41;100.00;98975.31;5020803;28;20043;-78
2024/01/03 10:19:35;;;;;;;23.77;5.97;;;;;;;8.50;100.00;98995.00;5024217;28;20034;-77
2024/01/03 10:22:02;;;;;;;22.52;5.32;;;;;;;8.56;100.00;99012.28;5021777;28;20242;-77
2024/01/03 10:24:28;;;;;;;17.45;5.47;;;;;;;8.54;100.00;99011.56;5021807;28;20073;-79
2024/01/03 10:27:14;;;;;;;17.55;4.85;;;;;;;8.38;100.00;98999.38;5001479;28;20677;-78
2024/01/03 10:29:40;;;;;;;21.10;5.82;;;;;;;8.25;100.00;98998.53;5016035;28;20515;-76
2024/01/03 10:32:09;;;;;;;19.73;5.07;;;;;;;8.25;100.00;98990.56;5022878;28;20106;-76
2024/01/03 10:34:36;;;;;;;18.58;5.43;;;;;;;8.23;100.00;99011.03;5021382;28;20524;-77
2024/01/03 10:37:03;;;;;;;19.75;5.45;;;;;;;8.27;100.00;99011.66;5022130;28;20061;-76
2024/01/03 10:39:33;;;;;;;17.23;4.72;;;;;;;8.33;100.00;99000.63;5020827;28;20573;-77
2024/01/03 10:41:58;;;;;;;17.88;5.10;;;;;;;8.33;100.00;98995.34;5022465;28;20065;-77
2024/01/03 10:44:24;;;;;;;15.00;4.43;;;;;;;8.37;100.00;99021.56;5022001;28;20065;-76
2024/01/03 10:46:54;;;;;;;18.05;4.72;;;;;;;8.40;100.00;99013.38;5018765;28;20042;-76
2024/01/03 10:49:19;;;;;;;18.63;4.75;;;;;;;8.40;100.00;99015.16;5022818;28;20041;-76
2024/01/03 10:51:51;;;;;;;17.33;4.63;;;;;;;8.50;100.00;99021.53;5015098;28;20037;-77
2024/01/03 10:54:20;;;;;;;16.77;4.78;;;;;;;8.56;100.00;99017.56;5022251;28;20232;-76
2024/01/03 10:56:51;;;;;;;16.65;4.55;;;;;;;8.52;100.00;99026.72;5020230;28;20029;-78
2024/01/03 10:59:18;;;;;;;20.30;4.60;;;;;;;8.43;100.00;99009.66;5018339;28;20044;-74
2024/01/03 11:01:58;;;;;;;18.50;5.07;;;;;;;8.45;100.00;99013.91;5017700;28;20033;-76
2024/01/03 11:05:02;;;;;;;17.92;4.65;;;;;;;8.34;100.00;99024.38;5022745;28;20063;-75
2024/01/03 11:07:42;;;;;;;21.83;5.40;;;;;;;8.36;100.00;99009.22;4998605;28;20467;-77
2024/01/03 11:10:08;;;;;;;17.38;5.50;;;;;;;8.34;100.00;98995.22;5020445;28;20042;-76
2024/01/03 11:12:33;;;;;;;21.38;5.30;;;;;;;8.30;100.00;99006.16;5021823;28;20582;-77
2024/01/03 11:15:21;;;;;;;20.13;4.93;;;;;;;8.20;100.00;99004.16;5022910;28;20065;-78
2024/01/03 11:17:46;;;;;;;25.38;5.88;;;;;;;8.14;100.00;99001.06;5002843;28;20508;-80
2024/01/03 11:20:12;;;;;;;18.70;5.68;;;;;;;8.10;100.00;99003.09;5021913;28;20440;-79
2024/01/03 11:22:58;;;;;;;22.30;5.65;;;;;;;8.05;100.00;99009.66;5025967;28;20034;-79